Time;durP1;ratioP1;P1;durP2;ratioP2;P2;SDS_P1;SDS_P2;PMS_P1;PMS_P2;Temp;Humidity;BMP_temperature;BMP_pressure;BME280_temperature;BME280_humidity;BME280_pressure;Samples;Min_cycle;Max_cycle;Signal;HPM_P1;HPM_P2
2022/11/08 00:01:33;;;;;;;2.73;1.70;;;;;;;8.25;100.00;100735.81;4956436;28;20212;-71
2022/11/08 00:04:04;;;;;;;2.17;1.90;;;;;;;8.21;100.00;100734.16;4958806;28;20249;-71
2022/11/08 00:14:45;;;;;;;3.47;1.70;;;;;;;8.18;100.00;100744.59;4960164;28;20206;-71
2022/11/08 00:17:12;;;;;;;3.13;1.47;;;;;;;8.19;100.00;100738.53;4959098;28;20573;-71
2022/11/08 00:19:38;;;;;;;2.80;1.80;;;;;;;8.20;100.00;100737.66;4956206;28;20220;-71
2022/11/08 00:22:05;;;;;;;4.03;1.90;;;;;;;8.18;100.00;100732.47;4962163;28;20206;-71
2022/11/08 00:24:31;;;;;;;2.20;1.50;;;;;;;8.13;100.00;100727.34;4962847;28;20209;-71
2022/11/08 00:26:59;;;;;;;3.40;1.80;;;;;;;8.12;100.00;100732.56;4961173;28;20879;-71
2022/11/08 00:29:25;;;;;;;2.17;1.97;;;;;;;8.10;100.00;100732.56;4958887;28;20229;-71
2022/11/08 00:31:52;;;;;;;3.90;1.93;;;;;;;8.09;100.00;100730.88;4956656;28;20659;-71
2022/11/08 00:34:18;;;;;;;1.57;1.40;;;;;;;8.11;100.00;100736.06;4957671;28;20202;-71
2022/11/08 00:36:44;;;;;;;1.90;1.60;;;;;;;8.11;100.00;100731.69;4959580;28;20209;-71
2022/11/08 00:39:11;;;;;;;3.47;1.70;;;;;;;8.12;100.00;100735.16;4957076;28;20221;-71
2022/11/08 00:41:37;;;;;;;2.20;1.90;;;;;;;8.10;100.00;100736.91;4956548;28;20206;-71
2022/11/08 00:44:05;;;;;;;2.07;1.67;;;;;;;8.09;100.00;100733.47;4974762;28;20211;-71
2022/11/08 00:46:32;;;;;;;3.00;2.00;;;;;;;8.11;100.00;100731.69;4955838;28;20479;-71
2022/11/08 00:48:58;;;;;;;4.97;1.73;;;;;;;8.11;100.00;100731.69;4959170;28;20571;-71
2022/11/08 00:51:24;;;;;;;3.83;1.80;;;;;;;8.13;100.00;100739.47;4959716;28;20716;-71
2022/11/08 00:53:51;;;;;;;2.00;1.87;;;;;;;8.12;100.00;100732.56;4957665;28;20201;-71
2022/11/08 00:56:17;;;;;;;3.63;1.60;;;;;;;8.10;100.00;100731.72;4956110;28;20483;-71
2022/11/08 01:01:13;;;;;;;2.70;1.90;;;;;;;8.02;100.00;100724.06;4940598;28;20686;-71
2022/11/08 01:03:39;;;;;;;3.63;1.63;;;;;;;8.01;100.00;100724.06;4943599;28;20200;-72
2022/11/08 01:06:08;;;;;;;3.10;1.70;;;;;;;7.95;100.00;100723.28;4941538;28;20205;-72
2022/11/08 01:08:34;;;;;;;3.47;1.90;;;;;;;7.93;100.00;100724.16;4943867;28;20247;-71
2022/11/08 01:11:03;;;;;;;2.20;1.70;;;;;;;7.88;100.00;100723.34;4955881;28;20580;-71
2022/11/08 01:13:30;;;;;;;4.00;1.90;;;;;;;7.83;100.00;100733.81;4936634;29;20206;-72
2022/11/08 01:15:56;;;;;;;4.03;1.83;;;;;;;7.80;100.00;100731.25;4936786;28;20205;-71
2022/11/08 01:18:24;;;;;;;2.30;1.77;;;;;;;7.76;100.00;100729.59;4938592;28;20225;-71
2022/11/08 01:20:50;;;;;;;4.73;1.87;;;;;;;7.76;100.00;100733.03;4957973;28;20224;-72
2022/11/08 01:23:18;;;;;;;1.50;1.40;;;;;;;7.73;100.00;100727.03;4940198;28;20342;-72
2022/11/08 01:25:46;;;;;;;4.17;1.70;;;;;;;7.69;100.00;100728.81;4942403;28;20220;-72
2022/11/08 01:28:13;;;;;;;3.63;1.80;;;;;;;7.67;100.00;100732.28;4937464;28;20216;-71
2022/11/08 01:30:41;;;;;;;2.17;1.80;;;;;;;7.63;100.00;100726.28;4940204;28;20201;-71
2022/11/08 01:33:08;;;;;;;3.60;1.90;;;;;;;7.58;100.00;100717.69;4940780;28;20212;-71
2022/11/08 01:35:36;;;;;;;2.63;1.40;;;;;;;7.55;100.00;100725.53;4936154;28;20221;-71
2022/11/08 01:38:04;;;;;;;3.53;1.97;;;;;;;7.55;100.00;100725.53;4938591;28;20232;-72
2022/11/08 01:40:31;;;;;;;3.90;1.70;;;;;;;7.53;100.00;100724.69;4957417;28;20478;-71
2022/11/08 01:42:57;;;;;;;2.13;1.70;;;;;;;7.49;100.00;100730.78;4933169;28;20716;-71
2022/11/08 01:46:01;;;;;;;5.23;1.77;;;;;;;7.45;100.00;100726.50;4935229;28;20206;-71
2022/11/08 01:48:29;;;;;;;4.67;1.63;;;;;;;7.44;100.00;100727.38;4943353;28;20235;-71
2022/11/08 01:50:59;;;;;;;1.73;1.40;;;;;;;7.41;100.00;100728.28;4938262;28;20814;-71
2022/11/08 01:53:27;;;;;;;4.17;2.03;;;;;;;7.35;100.00;100729.22;4936832;28;20584;-71
2022/11/08 01:55:54;;;;;;;6.50;2.03;;;;;;;7.30;100.00;100727.53;4943143;28;20210;-71
2022/11/08 01:58:24;;;;;;;3.70;1.90;;;;;;;7.26;100.00;100723.25;4936579;28;20224;-71
2022/11/08 02:00:52;;;;;;;4.33;1.90;;;;;;;7.25;100.00;100722.41;4943037;28;20212;-71
2022/11/08 02:03:20;;;;;;;2.93;1.60;;;;;;;7.23;100.00;100725.88;4939674;28;20231;-71
2022/11/08 02:05:47;;;;;;;1.67;1.57;;;;;;;7.20;100.00;100721.59;4936473;28;20208;-71
2022/11/08 02:08:19;;;;;;;2.80;1.80;;;;;;;7.15;100.00;100715.59;4939867;28;20226;-71
2022/11/08 02:10:49;;;;;;;3.03;1.80;;;;;;;7.17;100.00;100719.03;4958758;28;20208;-71
2022/11/08 02:13:19;;;;;;;3.00;1.60;;;;;;;7.11;100.00;100721.69;4937623;28;20215;-71
2022/11/08 02:15:46;;;;;;;3.47;2.03;;;;;;;7.08;100.00;100722.56;4941071;28;20207;-71
2022/11/08 02:18:14;;;;;;;4.73;1.87;;;;;;;7.04;100.00;100725.22;4942601;28;20201;-71
2022/11/08 02:20:46;;;;;;;2.53;1.90;;;;;;;7.02;100.00;100720.06;4944117;28;20200;-71
2022/11/08 02:23:19;;;;;;;3.77;1.80;;;;;;;7.00;100.00;100722.66;4943695;28;20747;-71
2022/11/08 02:25:47;;;;;;;3.90;2.10;;;;;;;6.97;100.00;100714.06;4941313;28;20400;-71
2022/11/08 02:28:13;;;;;;;2.80;1.73;;;;;;;6.93;100.00;100720.13;4942888;28;20207;-71
2022/11/08 02:30:39;;;;;;;5.23;2.00;;;;;;;6.89;100.00;100724.47;4943268;28;20207;-71
2022/11/08 02:33:16;;;;;;;3.77;1.77;;;;;;;6.83;100.00;100720.22;4939682;28;20210;-71
2022/11/08 02:35:46;;;;;;;4.53;1.60;;;;;;;6.79;100.00;100715.09;4941406;28;20209;-71
2022/11/08 02:38:12;;;;;;;5.03;1.60;;;;;;;6.77;100.00;100709.03;4958392;28;20209;-71
2022/11/08 02:40:47;;;;;;;4.67;1.77;;;;;;;6.73;100.00;100707.34;4959917;28;20207;-71
2022/11/08 02:43:14;;;;;;;3.40;1.80;;;;;;;6.67;100.00;100713.47;4935265;28;20228;-71
2022/11/08 02:45:40;;;;;;;2.30;1.67;;;;;;;6.61;100.00;100708.31;4941542;28;20218;-72
2022/11/08 02:48:07;;;;;;;2.50;1.97;;;;;;;6.59;100.00;100708.31;4940390;28;20204;-71
2022/11/08 02:50:33;;;;;;;3.93;1.60;;;;;;;6.58;100.00;100703.19;4943931;28;20203;-71
2022/11/08 02:52:59;;;;;;;3.37;2.33;;;;;;;6.55;100.00;100710.97;4944709;28;20213;-72
2022/11/08 02:55:26;;;;;;;2.80;1.97;;;;;;;6.50;100.00;100711.00;4937607;28;20254;-71
2022/11/08 02:57:54;;;;;;;3.03;1.80;;;;;;;6.45;100.00;100712.75;4944043;28;20207;-71
2022/11/08 03:00:20;;;;;;;3.97;1.87;;;;;;;6.42;100.00;100710.19;4939140;28;20207;-71
2022/11/08 03:02:50;;;;;;;2.57;1.70;;;;;;;6.39;100.00;100707.66;4939369;28;20196;-71
2022/11/08 03:05:16;;;;;;;2.87;1.70;;;;;;;6.39;100.00;100712.81;4939126;28;20615;-71
2022/11/08 03:07:43;;;;;;;4.13;1.80;;;;;;;6.33;100.00;100705.97;4939557;28;20200;-71
2022/11/08 03:10:10;;;;;;;4.03;1.70;;;;;;;6.29;100.00;100711.16;4941689;28;20588;-71
2022/11/08 03:12:36;;;;;;;4.23;1.70;;;;;;;6.28;100.00;100707.72;4939181;28;20214;-71
2022/11/08 03:15:05;;;;;;;9.20;2.07;;;;;;;6.26;100.00;100706.84;4940937;28;20203;-71
2022/11/08 03:17:32;;;;;;;2.57;1.80;;;;;;;6.24;100.00;100711.19;4937199;28;20394;-71
2022/11/08 03:19:59;;;;;;;2.43;1.80;;;;;;;6.30;100.00;100708.56;4941626;28;20711;-71
2022/11/08 03:22:26;;;;;;;1.60;1.50;;;;;;;6.29;100.00;100712.00;4941266;28;20206;-71
2022/11/08 03:24:52;;;;;;;5.00;2.03;;;;;;;6.29;100.00;100713.75;4940099;28;20198;-71
2022/11/08 03:27:19;;;;;;;11.27;2.13;;;;;;;6.29;100.00;100712.00;4935585;28;20477;-71
2022/11/08 03:29:46;;;;;;;2.90;1.80;;;;;;;6.27;100.00;100718.94;4961478;28;20248;-71
2022/11/08 03:32:15;;;;;;;2.27;1.70;;;;;;;6.28;100.00;100717.19;4940683;28;20799;-71
2022/11/08 03:34:42;;;;;;;5.93;2.37;;;;;;;6.33;100.00;100718.91;4938456;29;20580;-71
2022/11/08 03:37:09;;;;;;;2.73;2.00;;;;;;;6.33;100.00;100720.63;4938127;28;20569;-71
2022/11/08 03:39:36;;;;;;;3.70;1.70;;;;;;;6.31;100.00;100725.81;4935006;29;20220;-71
2022/11/08 03:42:03;;;;;;;4.97;2.03;;;;;;;6.30;100.00;100731.88;4940830;28;20240;-71
2022/11/08 03:44:30;;;;;;;7.23;2.43;;;;;;;6.27;100.00;100728.44;4936998;28;20661;-71
2022/11/08 03:46:56;;;;;;;4.47;1.90;;;;;;;6.25;100.00;100728.44;4936107;28;20198;-71
2022/11/08 03:49:25;;;;;;;2.47;1.97;;;;;;;6.26;100.00;100724.97;4938342;28;20235;-71
2022/11/08 03:51:52;;;;;;;3.83;2.00;;;;;;;6.23;100.00;100727.63;4938260;28;20295;-71
2022/11/08 03:54:18;;;;;;;5.13;2.10;;;;;;;6.22;100.00;100726.72;4936091;28;20568;-71
2022/11/08 03:56:44;;;;;;;3.20;1.80;;;;;;;6.23;100.00;100727.63;4938933;28;20217;-71
2022/11/08 03:59:12;;;;;;;7.27;2.27;;;;;;;6.23;100.00;100732.78;4938349;28;20227;-71
2022/11/08 04:01:39;;;;;;;3.10;2.20;;;;;;;6.19;100.00;100729.38;4938150;28;20743;-71
2022/11/08 04:04:05;;;;;;;4.00;2.33;;;;;;;6.20;100.00;100727.63;4937215;28;20228;-71
2022/11/08 04:06:33;;;;;;;6.27;2.00;;;;;;;6.21;100.00;100725.03;4940438;28;20719;-71
2022/11/08 04:08:59;;;;;;;5.37;2.57;;;;;;;6.17;100.00;100720.72;4939755;28;20226;-71
2022/11/08 04:16:54;;;;;;;5.47;2.13;;;;;;;6.12;100.00;100724.22;4939986;28;20207;-71
2022/11/08 04:22:07;;;;;;;3.83;2.57;;;;;;;6.04;100.00;100724.28;4943591;28;20711;-71
2022/11/08 04:24:34;;;;;;;5.03;2.47;;;;;;;6.01;100.00;100727.72;4939459;29;20631;-71
2022/11/08 04:27:01;;;;;;;2.60;1.97;;;;;;;5.97;100.00;100723.44;4936237;29;20210;-71
2022/11/08 04:29:28;;;;;;;5.03;2.43;;;;;;;5.96;100.00;100719.16;4940580;28;20254;-71
2022/11/08 04:31:54;;;;;;;4.23;2.13;;;;;;;5.95;100.00;100717.38;4941515;28;20206;-72
2022/11/08 04:34:20;;;;;;;5.17;2.30;;;;;;;5.92;100.00;100713.94;4941476;28;20203;-71
2022/11/08 04:36:47;;;;;;;7.70;2.63;;;;;;;5.90;100.00;100713.09;4935235;28;20299;-71
2022/11/08 04:39:15;;;;;;;3.17;2.07;;;;;;;5.93;100.00;100715.66;4934893;28;20223;-71
2022/11/08 04:41:41;;;;;;;5.53;2.30;;;;;;;5.96;100.00;100713.09;4942348;28;20199;-71
2022/11/08 04:44:09;;;;;;;3.80;2.13;;;;;;;5.93;100.00;100713.94;4938259;28;20213;-71
2022/11/08 04:46:36;;;;;;;7.33;2.10;;;;;;;5.87;100.00;100707.09;4938031;28;20361;-71
2022/11/08 04:49:02;;;;;;;10.03;2.00;;;;;;;5.86;100.00;100710.53;4942068;28;20333;-71
2022/11/08 04:51:31;;;;;;;2.10;1.90;;;;;;;5.85;100.00;100716.56;4940045;28;20191;-71
2022/11/08 04:53:59;;;;;;;3.53;1.93;;;;;;;5.85;100.00;100711.38;4959385;28;20808;-71
2022/11/08 04:56:29;;;;;;;1.93;1.43;;;;;;;5.87;100.00;100713.97;4935374;28;20229;-71
2022/11/08 04:58:57;;;;;;;2.10;1.73;;;;;;;5.87;100.00;100711.38;4936116;28;20346;-71
2022/11/08 05:01:25;;;;;;;4.23;2.20;;;;;;;5.84;100.00;100707.09;4936829;28;20437;-71
2022/11/08 05:03:53;;;;;;;6.67;2.57;;;;;;;5.86;100.00;100707.94;4936975;28;20206;-71
2022/11/08 05:06:21;;;;;;;3.53;1.90;;;;;;;5.83;100.00;100700.19;4934505;28;20203;-71
2022/11/08 05:08:48;;;;;;;2.50;2.10;;;;;;;5.85;100.00;100703.63;4939272;28;20226;-71
2022/11/08 05:11:16;;;;;;;5.17;2.30;;;;;;;5.88;100.00;100705.34;4940218;28;20199;-71
2022/11/08 05:13:44;;;;;;;6.23;2.00;;;;;;;5.90;100.00;100705.34;4938421;28;20282;-71
2022/11/08 05:16:13;;;;;;;3.13;2.03;;;;;;;5.92;100.00;100701.00;4936938;28;20414;-71
2022/11/08 05:18:39;;;;;;;2.50;1.97;;;;;;;5.92;100.00;100706.19;4941064;28;20230;-71
2022/11/08 05:23:51;;;;;;;4.17;2.37;;;;;;;5.88;100.00;100705.34;4941457;28;20289;-71
2022/11/08 05:26:18;;;;;;;3.37;2.10;;;;;;;5.84;100.00;100706.22;4933414;28;20202;-71
2022/11/08 05:28:46;;;;;;;2.60;1.97;;;;;;;5.86;100.00;100704.50;4938134;28;20215;-71
2022/11/08 05:31:13;;;;;;;4.27;1.97;;;;;;;5.82;100.00;100708.84;4940610;28;20742;-71
2022/11/08 05:33:40;;;;;;;3.77;2.40;;;;;;;5.84;100.00;100713.97;4935565;28;20210;-71
2022/11/08 05:36:10;;;;;;;7.83;2.60;;;;;;;5.79;100.00;100716.59;4936602;28;20213;-71
2022/11/08 05:38:37;;;;;;;2.80;2.20;;;;;;;5.78;100.00;100708.84;4941259;28;20226;-71
2022/11/08 05:41:04;;;;;;;3.20;1.90;;;;;;;5.78;100.00;100714.03;4933783;28;20211;-71
2022/11/08 05:43:30;;;;;;;4.03;2.13;;;;;;;5.77;100.00;100714.88;4938310;28;20707;-71
2022/11/08 05:45:58;;;;;;;6.63;2.50;;;;;;;5.75;100.00;100716.63;4936238;28;20218;-71
2022/11/08 05:48:25;;;;;;;6.20;3.03;;;;;;;5.74;100.00;100713.19;4940265;28;20222;-71
2022/11/08 05:50:51;;;;;;;4.30;2.40;;;;;;;5.72;100.00;100714.03;4939356;28;20223;-71
2022/11/08 05:53:17;;;;;;;3.63;2.60;;;;;;;5.65;100.00;100714.09;4958955;28;20213;-71
2022/11/08 05:55:44;;;;;;;4.23;2.23;;;;;;;5.66;100.00;100721.00;4939362;28;20199;-71
2022/11/08 05:58:10;;;;;;;3.20;2.27;;;;;;;5.62;100.00;100713.22;4937582;28;20206;-71
2022/11/08 06:00:37;;;;;;;6.70;2.03;;;;;;;5.65;100.00;100715.81;4938623;29;20214;-71
2022/11/08 06:03:05;;;;;;;4.87;2.50;;;;;;;5.62;100.00;100713.22;4936256;28;20209;-71
2022/11/08 06:05:32;;;;;;;5.43;1.97;;;;;;;5.61;100.00;100717.56;4935773;28;20203;-71
2022/11/08 06:07:58;;;;;;;3.43;2.20;;;;;;;5.57;100.00;100720.16;4941465;28;20213;-71
2022/11/08 06:10:25;;;;;;;2.20;2.00;;;;;;;5.53;100.00;100728.81;4941804;28;20235;-71
2022/11/08 06:12:51;;;;;;;4.33;2.30;;;;;;;5.50;100.00;100727.94;4940853;28;20525;-71
2022/11/08 06:15:18;;;;;;;2.13;1.60;;;;;;;5.49;100.00;100726.22;4941135;29;20201;-71
2022/11/08 06:17:44;;;;;;;3.33;2.03;;;;;;;5.51;100.00;100726.22;4933338;28;20676;-71
2022/11/08 06:20:12;;;;;;;5.40;2.40;;;;;;;5.52;100.00;100725.34;4940999;28;20801;-71
2022/11/08 06:22:39;;;;;;;2.67;2.07;;;;;;;5.52;100.00;100730.50;4945680;28;20206;-71
2022/11/08 06:25:05;;;;;;;2.90;2.17;;;;;;;5.56;100.00;100728.75;4939660;28;20871;-71
2022/11/08 06:27:32;;;;;;;6.17;2.30;;;;;;;5.58;100.00;100729.66;4937536;28;20603;-71
2022/11/08 06:29:58;;;;;;;6.27;2.47;;;;;;;5.63;100.00;100725.31;4941852;28;20269;-71
2022/11/08 06:32:24;;;;;;;5.47;2.23;;;;;;;5.66;100.00;100728.75;4942860;28;20522;-71
2022/11/08 06:34:51;;;;;;;7.87;2.47;;;;;;;5.70;100.00;100727.00;4943292;29;20225;-71
2022/11/08 06:37:18;;;;;;;4.47;2.50;;;;;;;5.79;100.00;100739.03;4939870;28;20211;-71
2022/11/08 06:39:45;;;;;;;3.27;2.07;;;;;;;5.85;100.00;100739.84;4944336;28;20521;-71
2022/11/08 06:42:11;;;;;;;3.13;2.40;;;;;;;5.94;100.00;100730.31;4943371;28;20229;-71
2022/11/08 06:44:37;;;;;;;2.47;2.00;;;;;;;5.95;100.00;100732.06;4941859;28;20194;-71
2022/11/08 06:47:04;;;;;;;3.37;2.40;;;;;;;5.96;100.00;100734.69;4940579;28;20678;-71
2022/11/08 06:49:30;;;;;;;5.27;2.10;;;;;;;6.00;100.00;100730.34;4940539;28;20230;-71
2022/11/08 06:51:57;;;;;;;2.30;2.07;;;;;;;6.05;100.00;100739.78;4937502;28;20430;-71
2022/11/08 06:54:24;;;;;;;5.77;2.57;;;;;;;6.15;100.00;100735.41;4934535;28;20686;-71
2022/11/08 06:56:51;;;;;;;5.77;2.70;;;;;;;6.16;100.00;100733.69;4937005;28;20297;-71
2022/11/08 06:59:17;;;;;;;6.00;2.80;;;;;;;6.15;100.00;100727.63;4939358;28;20635;-70
2022/11/08 07:01:43;;;;;;;3.50;3.10;;;;;;;6.20;100.00;100732.81;4935447;28;20199;-70
2022/11/08 07:04:10;;;;;;;3.40;2.77;;;;;;;6.28;100.00;100735.31;4940978;28;20345;-69
2022/11/08 07:06:36;;;;;;;3.13;2.60;;;;;;;6.30;100.00;100731.00;4945169;28;20254;-70
2022/11/08 07:09:02;;;;;;;5.27;3.30;;;;;;;6.36;100.00;100739.59;4953101;28;20239;-70
2022/11/08 07:11:30;;;;;;;4.63;2.50;;;;;;;6.40;100.00;100730.06;4937330;28;20214;-69
2022/11/08 07:13:56;;;;;;;3.03;2.40;;;;;;;6.44;100.00;100727.44;4936893;28;20445;-70
2022/11/08 07:16:23;;;;;;;6.20;3.10;;;;;;;6.49;100.00;100729.13;4940497;28;20449;-69
2022/11/08 07:18:50;;;;;;;3.97;2.80;;;;;;;6.52;100.00;100732.56;4938086;28;20233;-69
2022/11/08 07:21:16;;;;;;;4.77;3.03;;;;;;;6.55;100.00;100727.38;4940205;29;20545;-70
2022/11/08 07:23:43;;;;;;;6.90;3.70;;;;;;;6.61;100.00;100731.63;4938991;28;20204;-69
2022/11/08 07:26:10;;;;;;;6.47;3.77;;;;;;;6.60;100.00;100735.97;4934869;28;20209;-70
2022/11/08 07:28:37;;;;;;;6.07;4.23;;;;;;;6.61;100.00;100732.50;4938162;28;20309;-69
2022/11/08 07:31:05;;;;;;;4.33;3.43;;;;;;;6.61;100.00;100722.16;4940724;28;20226;-69
2022/11/08 07:33:31;;;;;;;4.13;2.90;;;;;;;6.63;100.00;100728.16;4937370;29;20202;-70
2022/11/08 07:35:58;;;;;;;7.70;3.40;;;;;;;6.70;100.00;100728.09;4939759;28;20276;-70
2022/11/08 07:38:25;;;;;;;5.40;3.30;;;;;;;6.71;100.00;100722.06;4937055;28;20232;-69
2022/11/08 07:40:54;;;;;;;5.33;2.87;;;;;;;6.75;100.00;100726.34;4934631;28;20198;-70
2022/11/08 07:43:21;;;;;;;9.27;3.40;;;;;;;6.80;100.00;100724.56;4941460;28;20198;-69
2022/11/08 07:45:53;;;;;;;10.00;3.23;;;;;;;6.89;100.00;100726.22;4939284;28;20204;-69
2022/11/08 07:48:19;;;;;;;5.80;3.23;;;;;;;7.00;100.00;100726.97;4956735;28;20237;-70
2022/11/08 07:50:47;;;;;;;5.57;3.90;;;;;;;7.04;100.00;100733.00;4937920;28;20704;-69
2022/11/08 07:53:13;;;;;;;13.13;3.90;;;;;;;7.10;100.00;100730.34;4940150;28;20590;-69
2022/11/08 07:55:40;;;;;;;6.07;3.93;;;;;;;7.10;100.00;100733.78;4939152;28;20192;-69
2022/11/08 07:58:07;;;;;;;8.93;3.73;;;;;;;7.18;100.00;100736.31;4939859;28;20450;-70
2022/11/08 08:00:36;;;;;;;5.23;3.60;;;;;;;7.27;100.00;100732.75;4938750;29;20302;-70
2022/11/08 08:03:05;;;;;;;6.67;3.90;;;;;;;7.35;100.00;100737.00;4938848;28;20563;-69
2022/11/08 08:05:35;;;;;;;7.00;3.50;;;;;;;7.42;100.00;100726.53;4937348;29;20210;-70
2022/11/08 08:08:02;;;;;;;5.00;3.60;;;;;;;7.56;100.00;100733.28;4938543;28;20207;-69
2022/11/08 08:10:30;;;;;;;5.70;3.90;;;;;;;7.63;100.00;100726.28;4935782;28;20725;-70
2022/11/08 08:12:57;;;;;;;6.23;4.03;;;;;;;7.76;100.00;100733.03;4937800;28;20246;-69
2022/11/08 08:15:24;;;;;;;7.00;3.83;;;;;;;7.84;100.00;100726.88;4939659;28;20531;-70
2022/11/08 08:17:51;;;;;;;6.60;3.97;;;;;;;7.88;100.00;100726.84;4936856;28;20193;-69
2022/11/08 08:20:19;;;;;;;6.97;3.90;;;;;;;8.02;100.00;100725.78;4935766;28;20709;-69
2022/11/08 08:22:46;;;;;;;10.47;4.83;;;;;;;8.09;100.00;100723.09;4939898;28;20518;-69
2022/11/08 08:25:12;;;;;;;7.17;3.87;;;;;;;8.15;100.00;100715.19;4938858;28;20228;-70
2022/11/08 08:27:39;;;;;;;5.83;4.17;;;;;;;8.25;100.00;100717.63;4935656;28;20216;-70
2022/11/08 08:30:07;;;;;;;6.37;4.00;;;;;;;8.33;100.00;100715.78;4934973;28;20229;-70
2022/11/08 08:32:34;;;;;;;11.67;4.40;;;;;;;8.37;100.00;100711.41;4937783;28;20685;-69
2022/11/08 08:35:00;;;;;;;11.70;4.13;;;;;;;8.43;100.00;100714.81;4939523;28;20210;-70
2022/11/08 08:37:28;;;;;;;6.93;4.30;;;;;;;8.52;100.00;100716.41;4940970;28;20208;-70
2022/11/08 08:39:54;;;;;;;9.80;4.40;;;;;;;8.60;100.00;100708.47;4939429;28;20221;-70
2022/11/08 08:42:20;;;;;;;8.60;4.03;;;;;;;8.74;100.00;100710.84;4938736;28;20206;-70
2022/11/08 08:44:47;;;;;;;10.37;4.40;;;;;;;8.78;100.00;100715.13;4940258;28;20715;-70
2022/11/08 08:47:13;;;;;;;9.37;4.63;;;;;;;8.81;100.00;100710.72;4940693;28;20202;-70
2022/11/08 08:49:39;;;;;;;8.63;3.67;;;;;;;8.89;100.00;100715.78;4939351;28;20595;-70
2022/11/08 08:52:06;;;;;;;7.23;5.17;;;;;;;8.95;100.00;100714.81;4937639;28;20222;-70
2022/11/08 08:54:34;;;;;;;7.50;4.30;;;;;;;9.05;100.00;100708.56;4937861;28;20590;-69
2022/11/08 08:57:00;;;;;;;10.97;4.87;;;;;;;9.15;100.00;100711.84;4938160;28;20203;-70
2022/11/08 08:59:27;;;;;;;6.70;4.40;;;;;;;9.23;100.00;100709.94;4939182;28;20645;-69
2022/11/08 09:01:54;;;;;;;10.37;4.53;;;;;;;9.29;100.00;100713.28;4942967;28;20238;-70
2022/11/08 09:04:20;;;;;;;8.70;3.83;;;;;;;9.35;100.00;100708.84;4947010;28;20195;-70
2022/11/08 09:06:46;;;;;;;6.93;3.93;;;;;;;9.43;100.00;100704.38;4941390;28;20207;-70
2022/11/08 09:09:13;;;;;;;5.07;3.80;;;;;;;9.50;100.00;100707.69;4944519;28;20857;-70
2022/11/08 09:11:40;;;;;;;6.37;3.70;;;;;;;9.57;100.00;100704.06;4938654;28;20226;-70
2022/11/08 09:14:07;;;;;;;8.83;3.27;;;;;;;9.65;100.00;100708.22;4942924;28;20586;-69
2022/11/08 09:16:33;;;;;;;4.73;3.37;;;;;;;9.74;100.00;100703.72;4941869;29;20191;-70
2022/11/08 09:19:00;;;;;;;5.87;3.37;;;;;;;9.82;100.00;100709.63;4941899;28;20791;-70
2022/11/08 09:21:26;;;;;;;6.37;3.20;;;;;;;9.89;100.00;100710.34;4959160;28;20733;-70
2022/11/08 09:23:52;;;;;;;5.50;2.70;;;;;;;9.92;100.00;100697.25;4943908;29;20225;-71
2022/11/08 09:26:19;;;;;;;7.10;2.77;;;;;;;9.99;100.00;100704.91;4945882;28;20753;-70
2022/11/08 09:28:46;;;;;;;4.57;2.53;;;;;;;10.08;100.00;100705.56;4943922;28;20299;-70
2022/11/08 09:31:13;;;;;;;5.93;2.47;;;;;;;10.16;100.00;100706.25;4945509;28;20330;-70
2022/11/08 09:33:40;;;;;;;4.50;2.13;;;;;;;10.24;100.00;100701.75;4961059;28;20207;-70
2022/11/08 09:36:09;;;;;;;2.57;2.10;;;;;;;10.32;100.00;100702.44;4941478;28;20203;-70
2022/11/08 09:38:35;;;;;;;2.17;1.87;;;;;;;10.39;100.00;100704.00;4943415;28;20299;-70
2022/11/08 09:41:18;;;;;;;3.43;1.90;;;;;;;10.44;100.00;100703.03;4945619;28;20197;-70
2022/11/08 09:44:07;;;;;;;2.17;1.70;;;;;;;10.51;100.00;100704.59;4943098;29;20207;-69
2022/11/08 09:46:39;;;;;;;4.50;2.13;;;;;;;10.58;100.00;100701.78;4945838;28;20481;-70
2022/11/08 09:49:11;;;;;;;3.10;1.77;;;;;;;10.66;100.00;100704.22;4940545;28;20220;-70
2022/11/08 09:51:38;;;;;;;5.17;1.70;;;;;;;10.77;100.00;100706.56;4943674;28;20235;-70
2022/11/08 09:54:11;;;;;;;3.43;1.53;;;;;;;10.83;100.00;100705.53;4941016;28;20205;-70
2022/11/08 09:56:38;;;;;;;4.90;1.97;;;;;;;10.92;100.00;100707.91;4941029;28;20202;-70
2022/11/08 09:59:20;;;;;;;3.43;1.70;;;;;;;10.97;100.00;100711.25;4940286;28;20483;-70
2022/11/08 10:01:48;;;;;;;3.77;1.50;;;;;;;11.03;100.00;100708.50;4939042;28;20209;-70
2022/11/08 10:04:18;;;;;;;3.77;1.77;;;;;;;11.04;100.00;100710.19;4942095;28;20204;-70
2022/11/08 10:07:13;;;;;;;1.90;1.17;;;;;;;11.15;100.00;100713.38;4940006;28;20208;-70
2022/11/08 10:10:01;;;;;;;1.80;1.53;;;;;;;11.26;100.00;100704.41;4941253;28;20225;-70
2022/11/08 10:12:35;;;;;;;2.77;1.40;;;;;;;11.29;100.00;100704.28;4937908;28;20309;-70
2022/11/08 10:15:14;;;;;;;2.10;1.60;;;;;;;11.32;100.00;100704.22;4942126;28;20287;-70
2022/11/08 10:17:55;;;;;;;2.50;1.47;;;;;;;11.38;100.00;100706.69;4934508;28;20706;-69
2022/11/08 10:20:34;;;;;;;3.60;1.80;;;;;;;11.46;100.00;100699.47;4944025;29;20203;-70
2022/11/08 10:23:13;;;;;;;2.87;1.40;;;;;;;11.53;100.00;100693.16;4940929;28;20214;-70
2022/11/08 10:25:44;;;;;;;2.47;1.37;;;;;;;11.58;100.00;100695.66;4939922;29;20205;-70
2022/11/08 10:28:15;;;;;;;2.33;1.30;;;;;;;11.60;100.00;100693.84;4938946;28;20213;-70
2022/11/08 10:30:46;;;;;;;2.87;1.70;;;;;;;11.64;100.00;100692.00;4958478;28;20218;-70
2022/11/08 10:33:17;;;;;;;3.00;2.03;;;;;;;11.68;100.00;100691.88;4932975;28;20566;-70
2022/11/08 10:35:48;;;;;;;3.97;2.23;;;;;;;11.75;100.00;100689.94;4936899;28;20213;-70
2022/11/08 10:38:19;;;;;;;4.73;2.50;;;;;;;11.82;100.00;100688.84;4938818;28;20203;-70
2022/11/08 10:40:53;;;;;;;3.10;1.90;;;;;;;11.87;100.00;100686.97;4939870;28;20233;-70
2022/11/08 10:43:24;;;;;;;6.40;1.60;;;;;;;11.94;100.00;100685.03;4935761;28;20289;-71
2022/11/08 10:45:52;;;;;;;3.33;1.80;;;;;;;12.00;100.00;100682.22;4932871;29;20265;-70
2022/11/08 10:48:18;;;;;;;1.77;1.40;;;;;;;12.04;100.00;100673.38;4933944;28;20214;-70
2022/11/08 10:50:48;;;;;;;1.73;1.30;;;;;;;12.10;100.00;100675.81;4938293;28;20211;-70
2022/11/08 10:53:20;;;;;;;2.90;1.97;;;;;;;12.13;100.00;100677.47;4936573;28;20487;-70
2022/11/08 10:55:49;;;;;;;2.60;1.47;;;;;;;12.13;100.00;100667.84;4932693;28;20384;-69
2022/11/08 10:58:37;;;;;;;2.13;1.70;;;;;;;12.23;100.00;100659.75;4936202;28;20245;-71
2022/11/08 11:01:13;;;;;;;1.70;1.50;;;;;;;12.31;100.00;100655.97;4954782;28;20588;-71
2022/11/08 11:03:40;;;;;;;4.47;1.40;;;;;;;12.31;100.00;100662.94;4937653;29;20202;-70
2022/11/08 11:06:21;;;;;;;4.10;1.50;;;;;;;12.38;100.00;100661.00;4936027;28;20209;-70
2022/11/08 11:08:49;;;;;;;3.03;1.30;;;;;;;12.47;100.00;100647.59;4937071;28;20222;-70
2022/11/08 11:11:24;;;;;;;1.63;1.33;;;;;;;12.57;100.00;100649.00;4941330;28;20222;-70
2022/11/08 11:14:11;;;;;;;2.43;1.57;;;;;;;12.61;100.00;100653.25;4936659;28;20206;-69
2022/11/08 11:16:53;;;;;;;3.60;1.63;;;;;;;12.64;100.00;100654.88;4935457;28;20203;-70
2022/11/08 11:19:20;;;;;;;4.93;1.63;;;;;;;12.62;100.00;100646.25;4953504;28;20326;-70
2022/11/08 11:21:53;;;;;;;4.50;1.60;;;;;;;12.61;100.00;100649.75;4938047;28;20198;-70
2022/11/08 11:24:20;;;;;;;1.80;1.30;;;;;;;12.63;100.00;100642.72;4936125;28;20218;-70
2022/11/08 11:26:56;;;;;;;4.50;1.50;;;;;;;12.66;100.00;100637.38;4936885;28;20206;-70
2022/11/08 11:29:26;;;;;;;4.50;1.60;;;;;;;12.79;100.00;100645.66;4939447;28;20737;-70
2022/11/08 11:31:54;;;;;;;2.30;1.50;;;;;;;12.85;100.00;100641.06;4935097;28;20237;-70
2022/11/08 11:34:31;;;;;;;2.67;1.40;;;;;;;12.96;100.00;100639.81;4938899;28;20218;-70
2022/11/08 11:37:04;;;;;;;1.70;1.40;;;;;;;13.00;100.00;100629.19;4938158;28;20376;-70
2022/11/08 11:39:35;;;;;;;2.33;1.40;;;;;;;13.03;100.00;100626.47;4935160;28;20218;-70
2022/11/08 11:42:06;;;;;;;4.50;1.53;;;;;;;13.10;100.00;100636.72;4941130;28;20201;-71
2022/11/08 11:44:38;;;;;;;3.93;1.87;;;;;;;13.18;100.00;100639.91;4933770;28;20208;-70
2022/11/08 11:47:15;;;;;;;1.93;1.47;;;;;;;13.23;100.00;100633.59;4943112;28;20897;-70
2022/11/08 11:49:43;;;;;;;1.87;1.43;;;;;;;13.32;100.00;100632.44;4939961;28;20598;-70
2022/11/08 11:52:14;;;;;;;1.67;1.47;;;;;;;13.40;100.00;100633.00;4943339;28;20224;-70